• Join FlightAware (Why Join?)
  • Login
  • US Flag 
07:57PM EDT


 

Airport Tracker/Info


-or-


 

Live Flight TrackerFlight Track Log ✈ LXJ267 ✈ 03-Jul-2013 ✈ KMVY - KPGD

Flight Track Log - Related Links

Times and Time Zones

All times are in EDT time to prevent confusion due to time zone crossing. See the LXJ267 flight status page for this flight to view local times or setup timezone preferences in your user account.

Time Position Orientation Groundspeed Altitude Reporting Facility
EDT Latitude Longitude Course Direction KTS MPH feet Rate Location/Type
11:47AM 41.3644 -70.7419 233° Southwest 219 252 7,500  Level Boston Center
11:48AM 41.4194 -70.8014 321° Northwest 245 282 10,300 3,120 Climbing Boston Center
11:49AM 41.4831 -70.8883 314° West 288 331 13,800 3,180 Climbing Boston Center
11:50AM 41.5072 -70.9819 289° West 298 343 16,700 2,400 Climbing Boston Center
11:51AM 41.4314 -71.0639 219° Southwest 247 284 18,700 2,160 Climbing Boston Center
11:52AM 41.3036 -71.3274 231° Southwest  Level FlightAware Approximate
11:52AM 41.3569 -71.1347 216° Southwest 319 367 21,100  Level Boston Center
11:53AM 41.2375 -71.4430 233° Southwest  Level FlightAware Approximate
11:53AM 41.2744 -71.2111 215° Southwest 352 405 23,600  Level Boston Center
11:54AM 41.2258 -71.3306 242° Southwest 358 412 25,600 1,980 Climbing Boston Center
11:55AM 41.1875 -71.4583 248° West 365 420 27,600 1,920 Climbing Boston Center
11:56AM 41.1447 -71.5856 246° West 372 428 29,500 1,740 Climbing Boston Center
11:57AM 41.0978 -71.7350 247° West 400 460 31,100 1,620 Climbing Boston Center
11:58AM 41.0608 -71.8619 249° West 411 473 32,800 4,440 Climbing Boston Center
11:59AM 41.0178 -72.0028 248° West 417 480 40,000 2,100 Climbing Boston Center
12:00PM 40.9389 -72.1103 226° Southwest 402 463 37,000 -540 Descending Boston Center
12:01PM 40.8600 -72.2094 224° Southwest 402 463 39,000 1,500 Climbing Boston Center
12:02PM 40.7789 -72.3114 224° Southwest 402 463 40,000 480 Climbing Boston Center
12:03PM 40.6958 -72.4044 220° Southwest 402 463 40,000  Level Boston Center
12:04PM 40.6144 -72.5056 223° Southwest 402 463 40,000  Level Boston Center
12:05PM 40.5350 -72.6067 224° Southwest 402 463 40,000  Level Boston Center
12:06PM 40.4517 -72.7072 223° Southwest 402 463 40,000  Level Boston Center
12:07PM 40.3681 -72.8078 223° Southwest 402 463 40,000  Level Boston Center
12:08PM 40.2883 -72.9081 224° Southwest 402 463 40,000  Level Boston Center
12:09PM 40.1983 -73.0050 219° Southwest 402 463 40,000  Level Boston Center
12:10PM 40.1208 -73.1075 225° Southwest 402 463 40,000  Level Boston Center
12:11PM 40.0417 -73.2067 224° Southwest 401 461 40,000  Level Washington Center
12:12PM 39.9606 -73.3069 223° Southwest 391 450 40,000  Level Washington Center
12:13PM 39.8811 -73.4042 223° Southwest 396 456 40,000  Level Washington Center
12:14PM 39.8014 -73.5011 223° Southwest 396 456 40,000  Level Washington Center
12:15PM 39.7197 -73.5953 222° Southwest 396 456 40,000  Level Washington Center
12:16PM 39.6358 -73.6972 223° Southwest 402 463 40,000  Level Washington Center
12:17PM 39.5583 -73.7936 224° Southwest 402 463 40,000  Level Washington Center
12:18PM 39.4722 -73.8897 221° Southwest 408 470 40,000  Level Washington Center
12:19PM 39.3903 -73.9883 223° Southwest 408 470 40,000  Level Washington Center
12:20PM 39.3061 -74.0869 222° Southwest 408 470 40,000  Level Washington Center
12:21PM 39.2258 -74.1822 223° Southwest 408 470 40,000  Level Washington Center
12:22PM 39.1417 -74.2803 222° Southwest 408 470 40,000  Level Washington Center
12:23PM 39.0572 -74.3808 223° Southwest 413 475 40,000  Level Washington Center
12:24PM 38.9642 -74.4622 214° Southwest 413 475 40,000  Level Washington Center
12:25PM 38.8669 -74.5358 211° Southwest 413 475 40,000  Level Washington Center
12:26PM 38.7717 -74.6144 213° Southwest 408 470 40,000  Level Washington Center
12:27PM 38.6764 -74.6928 213° Southwest 408 470 40,000  Level Washington Center
12:28PM 38.5831 -74.7736 214° Southwest 408 470 40,000  Level Washington Center
12:29PM 38.4919 -74.8569 216° Southwest 414 476 40,000  Level Washington Center
12:30PM 38.3986 -74.9347 213° Southwest 414 476 40,000  Level Washington Center
12:31PM 38.3258 -75.0042 217° Southwest 414 476 40,000  Level Washington Center
12:32PM 38.2222 -75.1081 218° Southwest 407 468 40,000  Level Washington Center
12:33PM 38.1328 -75.1853 214° Southwest 407 468 40,000  Level Washington Center
12:34PM 38.0456 -75.2781 220° Southwest 407 468 40,000  Level Washington Center
12:35PM 37.9664 -75.3731 223° Southwest 407 468 40,000  Level Washington Center
12:36PM 37.8831 -75.4628 220° Southwest 401 461 40,000  Level Washington Center
12:37PM 37.8019 -75.5603 224° Southwest 401 461 40,000  Level Washington Center
12:38PM 37.7164 -75.6417 217° Southwest 401 461 40,000  Level Washington Center
12:39PM 37.6267 -75.7281 217° Southwest 401 461 40,000  Level Washington Center
12:40PM 37.5389 -75.8144 218° Southwest 401 461 40,000  Level Washington Center
12:41PM 37.4469 -75.8925 214° Southwest 407 468 40,000  Level Washington Center
12:42PM 37.3569 -75.9758 216° Southwest 407 468 40,000  Level Washington Center
12:43PM 37.2608 -76.0564 214° Southwest 407 468 40,000  Level Washington Center
12:44PM 37.1708 -76.1339 214° Southwest 407 468 40,000  Level Washington Center
12:45PM 37.0767 -76.1958 208° Southwest 412 474 40,000  Level Washington Center
12:46PM 36.9803 -76.2861 217° Southwest 412 474 40,000  Level Washington Center
12:47PM 36.8919 -76.3736 218° Southwest 414 476 40,000  Level Washington Center
12:48PM 36.8142 -76.4611 222° Southwest 414 476 40,000  Level Washington Center
12:49PM 36.7281 -76.5533 221° Southwest 414 476 40,000  Level Washington Center
12:50PM 36.6417 -76.6661 226° Southwest 414 476 40,000  Level Washington Center
12:51PM 36.5572 -76.7608 222° Southwest 414 476 40,000  Level Washington Center
12:52PM 36.4853 -76.8475 224° Southwest 409 471 40,000  Level Washington Center
12:53PM 36.4028 -76.9544 226° Southwest 404 465 40,000  Level Washington Center
12:54PM 36.3308 -77.0436 225° Southwest 404 465 40,000  Level Washington Center
12:55PM 36.2422 -77.1244 216° Southwest 404 465 40,000  Level Washington Center
12:56PM 36.1597 -77.2025 217° Southwest 397 457 40,000  Level Washington Center
12:57PM 36.0711 -77.2828 216° Southwest 397 457 40,000  Level Washington Center
12:58PM 35.9822 -77.3631 216° Southwest 397 457 40,000  Level Washington Center
12:59PM 35.8914 -77.4356 213° Southwest 397 457 40,000  Level Washington Center
01:00PM 35.7844 -77.4792 198° South 392 451 40,000  Level Washington Center
01:01PM 35.6817 -77.5175 197° South 392 451 40,000  Level Washington Center
01:02PM 35.5725 -77.5533 195° South 397 457 40,000  Level Washington Center
01:03PM 35.4594 -77.5836 192° South 404 465 40,000  Level Washington Center
01:04PM 35.3461 -77.6139 192° South 415 478 40,000  Level Washington Center
01:05PM 35.2267 -77.6492 194° South 415 478 40,000  Level Washington Center
01:06PM 35.1194 -77.6972 200° South 415 478 40,000  Level Washington Center
01:07PM 35.0119 -77.7500 202° Southwest 415 478 40,000  Level Washington Center
01:08PM 34.9067 -77.8106 205° Southwest 415 478 40,000  Level Washington Center
01:09PM 34.8111 -77.8864 213° Southwest 420 483 40,000  Level Washington Center
01:10PM 34.7258 -77.9800 222° Southwest 420 483 40,000  Level Washington Center
01:11PM 34.6383 -78.0811 224° Southwest 425 489 40,000  Level Washington Center
01:12PM 34.5528 -78.1817 224° Southwest 430 495 40,000 120 Level Washington Center
01:14PM 34.3936 -78.3683 224° Southwest 432 497 40,500 300 Climbing Jacksonville Center
01:15PM 34.3033 -78.4661 222° Southwest 432 497 41,000 240 Climbing Jacksonville Center
01:16PM 34.2172 -78.5683 224° Southwest 432 497 41,000  Level Jacksonville Center
01:17PM 34.1306 -78.6631 222° Southwest 438 504 41,000  Level Jacksonville Center
01:18PM 34.0461 -78.7572 223° Southwest 438 504 41,000  Level Jacksonville Center
01:19PM 33.9594 -78.8542 223° Southwest 433 498 41,000  Level Jacksonville Center
01:20PM 33.8772 -78.9528 225° Southwest 433 498 41,000  Level Jacksonville Center
01:21PM 33.7928 -79.0567 226° Southwest 433 498 41,000  Level Jacksonville Center
01:22PM 33.7144 -79.1625 228° Southwest 433 498 41,000  Level Jacksonville Center
01:23PM 33.6344 -79.2756 230° Southwest 415 478 41,000  Level Jacksonville Center
01:24PM 33.5622 -79.3831 231° Southwest 420 483 41,000  Level Jacksonville Center
01:25PM 33.4878 -79.4883 230° Southwest 420 483 41,000  Level Jacksonville Center
01:26PM 33.4156 -79.5956 231° Southwest 420 483 41,000 -360 Level Jacksonville Center
01:27PM 33.3453 -79.7025 232° Southwest 420 483 40,300 -540 Descending Jacksonville Center
01:28PM 33.2731 -79.8144 232° Southwest 420 483 40,000 -180 Descending Jacksonville Center
01:29PM 33.2006 -79.9236 232° Southwest 427 491 40,000  Level Jacksonville Center
01:30PM 33.1150 -80.0183 223° Southwest 422 486 40,000  Level Jacksonville Center
01:31PM 33.0286 -80.0731 208° Southwest 416 479 40,000  Level Jacksonville Center
01:32PM 32.9092 -80.1486 208° Southwest 439 505 40,000  Level Jacksonville Center
01:33PM 32.8106 -80.2256 213° Southwest 445 512 40,000  Level Jacksonville Center
01:34PM 32.7144 -80.3125 217° Southwest 439 505 40,000  Level Jacksonville Center
01:35PM 32.6200 -80.3942 216° Southwest 433 498 40,000  Level Jacksonville Center
01:36PM 32.5233 -80.4781 216° Southwest 433 498 40,000  Level Jacksonville Center
01:37PM 32.4289 -80.5592 216° Southwest 433 498 40,000  Level Jacksonville Center
01:38PM 32.3344 -80.6428 217° Southwest 433 498 40,000  Level Jacksonville Center
01:39PM 32.2378 -80.7264 216° Southwest 433 498 40,000  Level Jacksonville Center
01:40PM 32.1369 -80.8119 216° Southwest 420 483 40,000  Level Jacksonville Center
01:41PM 32.0358 -80.8953 215° Southwest 439 505 40,000  Level Jacksonville Center
01:42PM 31.9472 -80.9681 215° Southwest 445 512 40,000  Level Jacksonville Center
01:43PM 31.8400 -81.0608 216° Southwest 445 512 40,000  Level Jacksonville Center
01:44PM 31.7453 -81.1408 216° Southwest 439 505 40,000  Level Jacksonville Center
01:45PM 31.6628 -81.2133 217° Southwest 427 491 40,000  Level Jacksonville Center
01:46PM 31.5594 -81.2981 215° Southwest 427 491 40,000  Level Jacksonville Center
01:47PM 31.4664 -81.3775 216° Southwest 416 479 40,000  Level Jacksonville Center
01:48PM 31.3817 -81.4469 215° Southwest 421 484 40,000  Level Jacksonville Center
01:49PM 31.2867 -81.5336 218° Southwest 429 494 40,000  Level Jacksonville Center
01:50PM 31.1914 -81.6128 215° Southwest 429 494 40,000  Level Jacksonville Center
01:51PM 31.0981 -81.6917 216° Southwest 429 494 40,000  Level Jacksonville Center
01:52PM 31.0008 -81.7706 215° Southwest 429 494 40,000  Level Jacksonville Center
01:53PM 30.9075 -81.8489 216° Southwest 429 494 40,000  Level Jacksonville Center
01:54PM 30.8119 -81.9300 216° Southwest 429 494 40,000  Level Jacksonville Center
01:55PM 30.7186 -82.0081 216° Southwest 429 494 40,000  Level Jacksonville Center
01:56PM 30.6125 -82.0839 212° Southwest 429 494 40,000  Level Jacksonville Center
01:57PM 30.5106 -82.0994 187° South 409 471 40,000  Level Jacksonville Center
01:58PM 30.3956 -82.1097 184° South 404 465 40,000  Level Jacksonville Center
01:59PM 30.2706 -82.1231 185° South 432 497 40,000  Level Jacksonville Center
02:00PM 30.1472 -82.1358 185° South 446 513 40,000  Level Jacksonville Center
02:01PM 30.0139 -82.1514 186° South 446 513 40,000 -180 Level Jacksonville Center
02:02PM 29.8950 -82.1619 184° South 446 513 39,700 -1,020 Descending Jacksonville Center
02:03PM 29.7781 -82.1747 185° South 441 507 38,000 -1,620 Descending Jacksonville Center
02:04PM 29.6736 -82.1778 181° South 429 494 36,500 -1,800 Descending Jacksonville Center
02:05PM 29.5528 -82.1906 185° South 429 494 34,400 -2,340 Descending Jacksonville Center
02:06PM 29.4233 -82.2036 185° South 441 507 31,900 -2,520 Descending Jacksonville Center
02:07PM 29.3003 -82.2139 184° South 454 522 29,400 -2,520 Descending Jacksonville Center
02:08PM 29.1772 -82.2242 184° South 449 517 26,900 -2,520 Descending Jacksonville Center
02:09PM 29.0603 -82.2392 186° South 438 504 24,400 -1,980 Descending Jacksonville Center
02:10PM 28.9456 -82.2803 197° South 433 498 23,000 -1,200 Descending Jacksonville Center
02:11PM 28.8353 -82.3167 196° South 427 491 22,100 -900 Descending Jacksonville Center
02:12PM 28.7206 -82.3456 192° South 427 491 21,200 -600 Descending Jacksonville Center
02:13PM 28.6100 -82.3842 197° South 421 484 21,000 -120 Descending Jacksonville Center
02:14PM 28.5017 -82.4319 201° Southwest 416 479 21,000 -540 Level Jacksonville Center
02:15PM 28.3956 -82.4772 201° Southwest 416 479 20,000 -1,260 Descending Jacksonville Center
02:18PM 28.1356 -82.5514 194° South 406 467 16,900 -960 Descending Miami Center
02:19PM 28.0339 -82.5392 174° South 385 443 16,900  Level Miami Center
02:19PM 27.9500 -82.5333 176° South 356 410 17,000 -1,620 Climbing Tampa TRACON
02:21PM 27.8333 -82.5167 173° South 322 371 13,700 -2,760 Descending Tampa TRACON
02:21PM 27.7500 -82.5167 180° South 312 359 11,300 -1,740 Descending Tampa TRACON
02:22PM 27.6833 -82.5333 192° South 279 321 10,500 -660 Descending Tampa TRACON
02:23PM 27.6000 -82.5500 190° South 278 320 10,000 -540 Descending Tampa TRACON
02:25PM 27.5167 -82.5500 180° South 260 299 9,400 -960 Descending Tampa TRACON
02:26PM 27.4500 -82.5667 193° South 250 288 8,000 -900 Descending Tampa TRACON
02:27PM 27.3833 -82.6000 204° Southwest 235 270 7,700 -1,020 Descending Tampa TRACON
02:28PM 27.3167 -82.6000 180° South 249 287 6,000 -1,380 Descending Tampa TRACON
02:29PM 27.2500 -82.5833 167° South 256 295 5,000 -540 Descending Tampa TRACON
02:30PM 27.1833 -82.5667 167° South 245 282 5,000  Level Tampa TRACON
02:31PM 27.1167 -82.5333 156° South 251 289 5,000  Level Tampa TRACON
02:32PM 27.0500 -82.5167 167° South 251 289 5,000  Level Tampa TRACON
02:33PM 26.9833 -82.4833 156° South 249 287 5,000  Level Tampa TRACON
02:34PM 26.9167 -82.4667 167° South 240 276 5,000  Level Tampa TRACON
02:35PM 26.8667 -82.4333 149° Southeast 238 274 5,000 -300 Level Tampa TRACON
02:36PM 26.8000 -82.3833 146° Southeast 237 273 4,500 -480 Descending Tampa TRACON
02:38PM 26.8647 -82.1703 55° Northeast  Level Estimated
02:45PM 26.9167 -81.9833 130° Southeast  Level FlightAware Approximate
02:46PM 26.9189 -81.9909 130° Southeast  Level Estimated